sensor_id;sensor_type;location;lat;lon;timestamp;P1;durP1;ratioP1;P2;durP2;ratioP2
20776;SDS011;10548;47.504;8.248;2022-09-01T00:01:20;13.13;;;10.30;;
20776;SDS011;10548;47.504;8.248;2022-09-01T00:03:49;21.53;;;9.57;;
20776;SDS011;10548;47.504;8.248;2022-09-01T00:06:18;17.83;;;9.47;;
20776;SDS011;10548;47.504;8.248;2022-09-01T00:08:51;12.73;;;9.57;;
20776;SDS011;10548;47.504;8.248;2022-09-01T00:11:19;18.07;;;9.40;;
20776;SDS011;10548;47.504;8.248;2022-09-01T00:13:47;15.43;;;8.93;;
20776;SDS011;10548;47.504;8.248;2022-09-01T00:16:16;15.70;;;9.73;;
20776;SDS011;10548;47.504;8.248;2022-09-01T00:18:48;12.27;;;9.13;;
20776;SDS011;10548;47.504;8.248;2022-09-01T00:21:16;12.10;;;9.67;;
20776;SDS011;10548;47.504;8.248;2022-09-01T00:23:44;13.47;;;10.00;;
20776;SDS011;10548;47.504;8.248;2022-09-01T00:26:12;14.27;;;10.30;;
20776;SDS011;10548;47.504;8.248;2022-09-01T00:28:39;14.87;;;10.20;;
20776;SDS011;10548;47.504;8.248;2022-09-01T00:31:07;11.93;;;9.47;;
20776;SDS011;10548;47.504;8.248;2022-09-01T00:33:36;14.23;;;10.33;;
20776;SDS011;10548;47.504;8.248;2022-09-01T00:36:04;15.90;;;9.50;;
20776;SDS011;10548;47.504;8.248;2022-09-01T00:38:31;16.40;;;9.80;;
20776;SDS011;10548;47.504;8.248;2022-09-01T00:40:59;13.63;;;9.43;;
20776;SDS011;10548;47.504;8.248;2022-09-01T00:46:29;10.60;;;8.53;;
20776;SDS011;10548;47.504;8.248;2022-09-01T00:49:03;12.37;;;9.10;;
20776;SDS011;10548;47.504;8.248;2022-09-01T00:51:34;15.47;;;9.80;;
20776;SDS011;10548;47.504;8.248;2022-09-01T00:54:05;11.93;;;9.43;;
20776;SDS011;10548;47.504;8.248;2022-09-01T00:56:34;12.70;;;9.30;;
20776;SDS011;10548;47.504;8.248;2022-09-01T00:59:05;12.53;;;8.90;;
20776;SDS011;10548;47.504;8.248;2022-09-01T01:01:34;14.50;;;9.43;;
20776;SDS011;10548;47.504;8.248;2022-09-01T01:04:03;15.90;;;10.53;;
20776;SDS011;10548;47.504;8.248;2022-09-01T01:06:31;12.80;;;9.47;;
20776;SDS011;10548;47.504;8.248;2022-09-01T01:08:59;18.77;;;9.13;;
20776;SDS011;10548;47.504;8.248;2022-09-01T01:11:28;18.03;;;10.60;;
20776;SDS011;10548;47.504;8.248;2022-09-01T01:14:00;15.80;;;9.80;;
20776;SDS011;10548;47.504;8.248;2022-09-01T01:16:38;14.37;;;10.97;;
20776;SDS011;10548;47.504;8.248;2022-09-01T01:19:19;15.43;;;11.37;;
20776;SDS011;10548;47.504;8.248;2022-09-01T01:23:24;16.80;;;11.13;;
20776;SDS011;10548;47.504;8.248;2022-09-01T01:25:44;19.90;;;11.00;;
20776;SDS011;10548;47.504;8.248;2022-09-01T01:28:21;18.13;;;10.73;;
20776;SDS011;10548;47.504;8.248;2022-09-01T01:30:54;19.50;;;11.53;;
20776;SDS011;10548;47.504;8.248;2022-09-01T01:33:29;15.90;;;10.77;;
20776;SDS011;10548;47.504;8.248;2022-09-01T01:36:00;16.03;;;11.67;;
20776;SDS011;10548;47.504;8.248;2022-09-01T01:38:27;15.53;;;11.37;;
20776;SDS011;10548;47.504;8.248;2022-09-01T01:40:57;15.60;;;11.17;;
20776;SDS011;10548;47.504;8.248;2022-09-01T01:43:25;22.20;;;10.73;;
20776;SDS011;10548;47.504;8.248;2022-09-01T01:45:55;21.53;;;12.13;;
20776;SDS011;10548;47.504;8.248;2022-09-01T01:48:35;22.40;;;12.37;;
20776;SDS011;10548;47.504;8.248;2022-09-01T01:51:06;19.27;;;12.53;;
20776;SDS011;10548;47.504;8.248;2022-09-01T01:53:36;17.90;;;12.97;;
20776;SDS011;10548;47.504;8.248;2022-09-01T01:56:03;19.73;;;12.90;;
20776;SDS011;10548;47.504;8.248;2022-09-01T01:58:33;16.33;;;11.60;;
20776;SDS011;10548;47.504;8.248;2022-09-01T02:01:07;19.27;;;11.83;;
20776;SDS011;10548;47.504;8.248;2022-09-01T02:03:36;17.60;;;12.07;;
20776;SDS011;10548;47.504;8.248;2022-09-01T02:06:05;21.23;;;13.03;;
20776;SDS011;10548;47.504;8.248;2022-09-01T02:08:35;13.57;;;11.53;;
20776;SDS011;10548;47.504;8.248;2022-09-01T02:11:04;17.03;;;12.63;;
20776;SDS011;10548;47.504;8.248;2022-09-01T02:13:32;20.77;;;13.70;;
20776;SDS011;10548;47.504;8.248;2022-09-01T02:16:01;25.53;;;12.37;;
20776;SDS011;10548;47.504;8.248;2022-09-01T02:18:34;17.13;;;12.77;;
20776;SDS011;10548;47.504;8.248;2022-09-01T02:21:06;18.83;;;12.43;;
20776;SDS011;10548;47.504;8.248;2022-09-01T02:23:41;20.40;;;12.00;;
20776;SDS011;10548;47.504;8.248;2022-09-01T02:26:08;21.40;;;13.43;;
20776;SDS011;10548;47.504;8.248;2022-09-01T02:28:43;15.83;;;12.50;;
20776;SDS011;10548;47.504;8.248;2022-09-01T02:31:19;21.30;;;12.43;;
20776;SDS011;10548;47.504;8.248;2022-09-01T02:33:47;13.53;;;10.97;;
20776;SDS011;10548;47.504;8.248;2022-09-01T02:36:15;14.97;;;11.63;;
20776;SDS011;10548;47.504;8.248;2022-09-01T02:38:44;16.93;;;11.50;;
20776;SDS011;10548;47.504;8.248;2022-09-01T02:41:20;14.40;;;10.70;;
20776;SDS011;10548;47.504;8.248;2022-09-01T02:43:50;18.07;;;12.17;;
20776;SDS011;10548;47.504;8.248;2022-09-01T02:46:18;15.47;;;11.07;;
20776;SDS011;10548;47.504;8.248;2022-09-01T02:48:50;13.17;;;11.40;;
20776;SDS011;10548;47.504;8.248;2022-09-01T02:51:19;18.00;;;11.93;;
20776;SDS011;10548;47.504;8.248;2022-09-01T02:53:49;17.13;;;11.20;;
20776;SDS011;10548;47.504;8.248;2022-09-01T02:56:19;22.70;;;11.53;;
20776;SDS011;10548;47.504;8.248;2022-09-01T02:58:51;22.53;;;11.97;;
20776;SDS011;10548;47.504;8.248;2022-09-01T03:01:21;24.83;;;12.17;;
20776;SDS011;10548;47.504;8.248;2022-09-01T03:04:00;16.47;;;11.33;;
20776;SDS011;10548;47.504;8.248;2022-09-01T03:06:31;20.87;;;10.90;;
20776;SDS011;10548;47.504;8.248;2022-09-01T03:09:00;18.77;;;10.97;;
20776;SDS011;10548;47.504;8.248;2022-09-01T03:11:30;18.93;;;11.63;;
20776;SDS011;10548;47.504;8.248;2022-09-01T03:13:58;17.73;;;11.97;;
20776;SDS011;10548;47.504;8.248;2022-09-01T03:16:27;18.93;;;12.50;;
20776;SDS011;10548;47.504;8.248;2022-09-01T03:18:56;18.57;;;13.47;;
20776;SDS011;10548;47.504;8.248;2022-09-01T03:21:23;18.57;;;14.60;;
20776;SDS011;10548;47.504;8.248;2022-09-01T03:23:51;20.77;;;15.00;;
20776;SDS011;10548;47.504;8.248;2022-09-01T03:26:19;19.90;;;14.47;;
20776;SDS011;10548;47.504;8.248;2022-09-01T03:28:48;20.80;;;15.07;;
20776;SDS011;10548;47.504;8.248;2022-09-01T03:31:17;17.40;;;15.43;;
20776;SDS011;10548;47.504;8.248;2022-09-01T03:33:47;25.87;;;17.00;;
20776;SDS011;10548;47.504;8.248;2022-09-01T03:36:24;18.93;;;15.73;;
20776;SDS011;10548;47.504;8.248;2022-09-01T03:38:53;19.57;;;16.10;;
20776;SDS011;10548;47.504;8.248;2022-09-01T03:41:24;19.53;;;16.20;;
20776;SDS011;10548;47.504;8.248;2022-09-01T03:43:54;21.20;;;16.50;;
20776;SDS011;10548;47.504;8.248;2022-09-01T03:46:26;23.17;;;17.80;;
20776;SDS011;10548;47.504;8.248;2022-09-01T03:49:02;25.37;;;18.07;;
20776;SDS011;10548;47.504;8.248;2022-09-01T03:51:38;23.83;;;19.40;;
20776;SDS011;10548;47.504;8.248;2022-09-01T03:54:07;22.87;;;17.90;;
20776;SDS011;10548;47.504;8.248;2022-09-01T03:56:34;25.63;;;19.37;;
20776;SDS011;10548;47.504;8.248;2022-09-01T03:59:13;25.13;;;18.50;;
20776;SDS011;10548;47.504;8.248;2022-09-01T04:01:44;29.93;;;18.77;;
20776;SDS011;10548;47.504;8.248;2022-09-01T04:04:12;21.63;;;18.23;;
20776;SDS011;10548;47.504;8.248;2022-09-01T04:06:40;29.33;;;18.27;;
20776;SDS011;10548;47.504;8.248;2022-09-01T04:09:09;23.00;;;18.37;;
20776;SDS011;10548;47.504;8.248;2022-09-01T04:11:39;26.77;;;17.10;;
20776;SDS011;10548;47.504;8.248;2022-09-01T04:14:13;25.13;;;17.80;;
20776;SDS011;10548;47.504;8.248;2022-09-01T04:16:41;21.20;;;15.60;;
20776;SDS011;10548;47.504;8.248;2022-09-01T04:19:28;21.40;;;17.07;;
20776;SDS011;10548;47.504;8.248;2022-09-01T04:21:58;23.57;;;16.10;;
20776;SDS011;10548;47.504;8.248;2022-09-01T04:24:38;25.80;;;17.30;;
20776;SDS011;10548;47.504;8.248;2022-09-01T04:27:12;22.43;;;16.80;;
20776;SDS011;10548;47.504;8.248;2022-09-01T04:29:41;21.30;;;16.33;;
20776;SDS011;10548;47.504;8.248;2022-09-01T04:32:08;21.40;;;17.87;;
20776;SDS011;10548;47.504;8.248;2022-09-01T04:34:41;19.10;;;15.90;;
20776;SDS011;10548;47.504;8.248;2022-09-01T04:37:12;19.67;;;16.93;;
20776;SDS011;10548;47.504;8.248;2022-09-01T04:39:47;21.27;;;16.13;;
20776;SDS011;10548;47.504;8.248;2022-09-01T04:42:22;18.93;;;15.60;;
20776;SDS011;10548;47.504;8.248;2022-09-01T04:44:53;19.60;;;15.57;;
20776;SDS011;10548;47.504;8.248;2022-09-01T04:47:23;20.70;;;14.70;;
20776;SDS011;10548;47.504;8.248;2022-09-01T04:50:03;21.60;;;15.93;;
20776;SDS011;10548;47.504;8.248;2022-09-01T04:52:42;18.73;;;15.57;;
20776;SDS011;10548;47.504;8.248;2022-09-01T04:55:21;18.83;;;15.10;;
20776;SDS011;10548;47.504;8.248;2022-09-01T04:57:50;21.60;;;15.53;;
20776;SDS011;10548;47.504;8.248;2022-09-01T05:00:18;21.03;;;16.33;;
20776;SDS011;10548;47.504;8.248;2022-09-01T05:02:51;20.27;;;15.83;;
20776;SDS011;10548;47.504;8.248;2022-09-01T05:05:50;20.90;;;15.47;;
20776;SDS011;10548;47.504;8.248;2022-09-01T05:08:20;18.87;;;14.83;;
20776;SDS011;10548;47.504;8.248;2022-09-01T05:10:52;17.43;;;14.80;;
20776;SDS011;10548;47.504;8.248;2022-09-01T05:13:39;17.03;;;15.03;;
20776;SDS011;10548;47.504;8.248;2022-09-01T05:16:07;16.53;;;14.67;;
20776;SDS011;10548;47.504;8.248;2022-09-01T05:18:43;16.53;;;14.10;;
20776;SDS011;10548;47.504;8.248;2022-09-01T05:21:15;18.13;;;14.47;;
20776;SDS011;10548;47.504;8.248;2022-09-01T05:23:45;19.87;;;15.23;;
20776;SDS011;10548;47.504;8.248;2022-09-01T05:26:17;19.53;;;14.93;;
20776;SDS011;10548;47.504;8.248;2022-09-01T05:28:52;21.27;;;15.27;;
20776;SDS011;10548;47.504;8.248;2022-09-01T05:31:22;16.67;;;14.03;;
20776;SDS011;10548;47.504;8.248;2022-09-01T05:33:53;18.17;;;14.17;;
20776;SDS011;10548;47.504;8.248;2022-09-01T05:36:23;16.83;;;13.67;;
20776;SDS011;10548;47.504;8.248;2022-09-01T05:38:54;18.47;;;14.63;;
20776;SDS011;10548;47.504;8.248;2022-09-01T05:41:22;18.67;;;14.47;;
20776;SDS011;10548;47.504;8.248;2022-09-01T05:43:50;17.80;;;13.57;;
20776;SDS011;10548;47.504;8.248;2022-09-01T05:46:26;18.00;;;12.83;;
20776;SDS011;10548;47.504;8.248;2022-09-01T05:48:55;15.60;;;13.00;;
20776;SDS011;10548;47.504;8.248;2022-09-01T05:51:25;14.90;;;13.07;;
20776;SDS011;10548;47.504;8.248;2022-09-01T05:54:16;14.97;;;13.17;;
20776;SDS011;10548;47.504;8.248;2022-09-01T05:56:47;16.63;;;13.83;;
20776;SDS011;10548;47.504;8.248;2022-09-01T05:59:19;17.87;;;13.13;;
20776;SDS011;10548;47.504;8.248;2022-09-01T06:01:49;16.47;;;12.50;;
20776;SDS011;10548;47.504;8.248;2022-09-01T06:04:19;15.33;;;13.73;;
20776;SDS011;10548;47.504;8.248;2022-09-01T06:06:48;17.37;;;13.23;;
20776;SDS011;10548;47.504;8.248;2022-09-01T06:09:36;14.23;;;12.73;;
20776;SDS011;10548;47.504;8.248;2022-09-01T06:12:07;16.93;;;13.30;;
20776;SDS011;10548;47.504;8.248;2022-09-01T06:14:44;14.73;;;12.60;;
20776;SDS011;10548;47.504;8.248;2022-09-01T06:17:13;22.43;;;14.27;;
20776;SDS011;10548;47.504;8.248;2022-09-01T06:19:42;17.73;;;13.60;;
20776;SDS011;10548;47.504;8.248;2022-09-01T06:22:09;14.27;;;12.20;;
20776;SDS011;10548;47.504;8.248;2022-09-01T06:24:38;21.73;;;12.07;;
20776;SDS011;10548;47.504;8.248;2022-09-01T06:27:10;14.57;;;12.03;;
20776;SDS011;10548;47.504;8.248;2022-09-01T06:29:38;15.73;;;11.63;;
20776;SDS011;10548;47.504;8.248;2022-09-01T06:32:05;16.03;;;10.47;;
20776;SDS011;10548;47.504;8.248;2022-09-01T06:34:39;15.67;;;11.23;;
20776;SDS011;10548;47.504;8.248;2022-09-01T06:37:08;15.27;;;12.23;;
20776;SDS011;10548;47.504;8.248;2022-09-01T06:39:36;17.07;;;12.87;;
20776;SDS011;10548;47.504;8.248;2022-09-01T06:42:03;18.57;;;11.43;;
20776;SDS011;10548;47.504;8.248;2022-09-01T06:44:44;13.50;;;11.37;;
20776;SDS011;10548;47.504;8.248;2022-09-01T06:47:12;13.07;;;11.00;;
20776;SDS011;10548;47.504;8.248;2022-09-01T06:49:41;13.40;;;12.00;;
20776;SDS011;10548;47.504;8.248;2022-09-01T06:52:14;18.93;;;11.13;;
20776;SDS011;10548;47.504;8.248;2022-09-01T06:54:41;14.03;;;10.63;;
20776;SDS011;10548;47.504;8.248;2022-09-01T06:57:10;14.87;;;10.27;;
20776;SDS011;10548;47.504;8.248;2022-09-01T06:59:57;16.40;;;11.37;;
20776;SDS011;10548;47.504;8.248;2022-09-01T07:02:27;12.53;;;11.10;;
20776;SDS011;10548;47.504;8.248;2022-09-01T07:05:37;12.70;;;10.47;;
20776;SDS011;10548;47.504;8.248;2022-09-01T07:08:58;18.10;;;10.30;;
20776;SDS011;10548;47.504;8.248;2022-09-01T07:12:07;13.43;;;10.80;;
20776;SDS011;10548;47.504;8.248;2022-09-01T07:14:51;12.27;;;10.17;;
20776;SDS011;10548;47.504;8.248;2022-09-01T07:17:39;14.53;;;11.13;;
20776;SDS011;10548;47.504;8.248;2022-09-01T07:20:08;11.97;;;10.67;;
20776;SDS011;10548;47.504;8.248;2022-09-01T07:22:54;14.87;;;10.97;;
20776;SDS011;10548;47.504;8.248;2022-09-01T07:25:31;14.13;;;10.53;;
20776;SDS011;10548;47.504;8.248;2022-09-01T07:28:32;16.80;;;11.53;;
20776;SDS011;10548;47.504;8.248;2022-09-01T07:31:03;14.30;;;10.67;;
20776;SDS011;10548;47.504;8.248;2022-09-01T07:33:54;13.43;;;10.77;;
20776;SDS011;10548;47.504;8.248;2022-09-01T07:36:45;12.47;;;10.23;;
20776;SDS011;10548;47.504;8.248;2022-09-01T07:39:34;13.97;;;10.57;;
20776;SDS011;10548;47.504;8.248;2022-09-01T07:42:53;15.80;;;9.87;;
20776;SDS011;10548;47.504;8.248;2022-09-01T07:46:10;13.07;;;9.40;;
20776;SDS011;10548;47.504;8.248;2022-09-01T07:48:59;11.30;;;8.57;;
20776;SDS011;10548;47.504;8.248;2022-09-01T07:51:49;16.67;;;9.50;;
20776;SDS011;10548;47.504;8.248;2022-09-01T07:54:18;16.50;;;8.93;;
20776;SDS011;10548;47.504;8.248;2022-09-01T07:56:50;9.93;;;7.27;;
20776;SDS011;10548;47.504;8.248;2022-09-01T07:59:18;9.93;;;7.53;;
20776;SDS011;10548;47.504;8.248;2022-09-01T08:02:02;9.10;;;6.30;;
20776;SDS011;10548;47.504;8.248;2022-09-01T08:04:31;6.27;;;5.33;;
20776;SDS011;10548;47.504;8.248;2022-09-01T08:07:00;11.10;;;5.77;;
20776;SDS011;10548;47.504;8.248;2022-09-01T08:09:27;6.97;;;5.60;;
20776;SDS011;10548;47.504;8.248;2022-09-01T08:12:05;8.40;;;6.23;;
20776;SDS011;10548;47.504;8.248;2022-09-01T08:14:40;7.60;;;6.40;;
20776;SDS011;10548;47.504;8.248;2022-09-01T08:17:07;9.60;;;7.37;;
20776;SDS011;10548;47.504;8.248;2022-09-01T08:19:57;10.87;;;7.10;;
20776;SDS011;10548;47.504;8.248;2022-09-01T08:22:53;7.97;;;6.70;;
20776;SDS011;10548;47.504;8.248;2022-09-01T08:25:23;9.20;;;7.17;;
20776;SDS011;10548;47.504;8.248;2022-09-01T08:27:53;6.67;;;5.67;;
20776;SDS011;10548;47.504;8.248;2022-09-01T08:30:27;7.63;;;5.97;;
20776;SDS011;10548;47.504;8.248;2022-09-01T08:32:59;7.23;;;6.37;;
20776;SDS011;10548;47.504;8.248;2022-09-01T08:35:37;6.63;;;6.03;;
20776;SDS011;10548;47.504;8.248;2022-09-01T08:38:05;7.63;;;5.80;;
20776;SDS011;10548;47.504;8.248;2022-09-01T08:40:33;8.47;;;6.40;;
20776;SDS011;10548;47.504;8.248;2022-09-01T08:43:17;7.80;;;6.37;;
20776;SDS011;10548;47.504;8.248;2022-09-01T08:46:28;8.23;;;6.70;;
20776;SDS011;10548;47.504;8.248;2022-09-01T08:49:03;7.83;;;5.43;;
20776;SDS011;10548;47.504;8.248;2022-09-01T08:52:24;6.53;;;5.10;;
20776;SDS011;10548;47.504;8.248;2022-09-01T08:55:05;4.97;;;4.47;;
20776;SDS011;10548;47.504;8.248;2022-09-01T08:57:54;6.17;;;5.10;;
20776;SDS011;10548;47.504;8.248;2022-09-01T09:00:46;6.57;;;5.13;;
20776;SDS011;10548;47.504;8.248;2022-09-01T09:03:39;6.90;;;5.20;;
20776;SDS011;10548;47.504;8.248;2022-09-01T09:06:22;9.70;;;5.87;;
20776;SDS011;10548;47.504;8.248;2022-09-01T09:09:00;5.97;;;4.93;;
20776;SDS011;10548;47.504;8.248;2022-09-01T09:11:45;5.70;;;4.60;;
20776;SDS011;10548;47.504;8.248;2022-09-01T09:14:55;6.63;;;5.20;;
20776;SDS011;10548;47.504;8.248;2022-09-01T09:17:39;7.13;;;5.20;;
20776;SDS011;10548;47.504;8.248;2022-09-01T09:20:12;7.40;;;5.50;;
20776;SDS011;10548;47.504;8.248;2022-09-01T09:22:40;5.43;;;4.67;;
20776;SDS011;10548;47.504;8.248;2022-09-01T09:25:09;5.80;;;4.60;;
20776;SDS011;10548;47.504;8.248;2022-09-01T09:27:47;7.07;;;4.97;;
20776;SDS011;10548;47.504;8.248;2022-09-01T09:30:26;6.33;;;5.30;;
20776;SDS011;10548;47.504;8.248;2022-09-01T09:32:56;6.47;;;4.30;;
20776;SDS011;10548;47.504;8.248;2022-09-01T09:35:46;4.77;;;4.00;;
20776;SDS011;10548;47.504;8.248;2022-09-01T09:38:19;6.43;;;3.63;;
20776;SDS011;10548;47.504;8.248;2022-09-01T09:41:03;4.20;;;3.80;;
20776;SDS011;10548;47.504;8.248;2022-09-01T09:44:04;5.27;;;4.07;;
20776;SDS011;10548;47.504;8.248;2022-09-01T09:46:51;3.63;;;3.30;;
20776;SDS011;10548;47.504;8.248;2022-09-01T09:52:15;6.47;;;3.77;;
20776;SDS011;10548;47.504;8.248;2022-09-01T09:55:05;5.70;;;4.10;;
20776;SDS011;10548;47.504;8.248;2022-09-01T09:57:48;4.87;;;3.93;;
20776;SDS011;10548;47.504;8.248;2022-09-01T10:00:20;5.40;;;3.40;;
20776;SDS011;10548;47.504;8.248;2022-09-01T10:03:00;8.37;;;4.47;;
20776;SDS011;10548;47.504;8.248;2022-09-01T10:05:43;4.40;;;4.00;;
20776;SDS011;10548;47.504;8.248;2022-09-01T10:11:27;7.70;;;4.60;;
20776;SDS011;10548;47.504;8.248;2022-09-01T10:14:13;5.37;;;3.80;;
20776;SDS011;10548;47.504;8.248;2022-09-01T10:17:13;5.83;;;3.93;;
20776;SDS011;10548;47.504;8.248;2022-09-01T10:19:50;5.30;;;3.80;;
20776;SDS011;10548;47.504;8.248;2022-09-01T10:22:33;6.10;;;3.50;;
20776;SDS011;10548;47.504;8.248;2022-09-01T10:25:03;4.40;;;3.77;;
20776;SDS011;10548;47.504;8.248;2022-09-01T10:27:34;7.57;;;3.60;;
20776;SDS011;10548;47.504;8.248;2022-09-01T10:30:09;4.20;;;3.70;;
20776;SDS011;10548;47.504;8.248;2022-09-01T10:32:48;7.07;;;4.03;;
20776;SDS011;10548;47.504;8.248;2022-09-01T10:35:26;4.57;;;4.07;;
20776;SDS011;10548;47.504;8.248;2022-09-01T10:37:58;4.77;;;3.07;;
20776;SDS011;10548;47.504;8.248;2022-09-01T10:40:39;5.70;;;3.43;;
20776;SDS011;10548;47.504;8.248;2022-09-01T10:43:26;4.73;;;3.03;;
20776;SDS011;10548;47.504;8.248;2022-09-01T10:49:20;7.37;;;3.60;;
20776;SDS011;10548;47.504;8.248;2022-09-01T10:58:23;3.53;;;3.20;;
20776;SDS011;10548;47.504;8.248;2022-09-01T11:01:16;4.53;;;3.40;;
20776;SDS011;10548;47.504;8.248;2022-09-01T11:07:37;4.13;;;3.00;;
20776;SDS011;10548;47.504;8.248;2022-09-01T11:13:53;3.47;;;3.00;;
20776;SDS011;10548;47.504;8.248;2022-09-01T11:16:38;4.77;;;2.87;;
20776;SDS011;10548;47.504;8.248;2022-09-01T11:28:08;3.70;;;2.60;;
20776;SDS011;10548;47.504;8.248;2022-09-01T11:31:21;5.50;;;2.73;;
20776;SDS011;10548;47.504;8.248;2022-09-01T11:34:18;4.27;;;2.97;;
20776;SDS011;10548;47.504;8.248;2022-09-01T11:36:51;4.33;;;2.80;;
20776;SDS011;10548;47.504;8.248;2022-09-01T11:39:31;4.00;;;2.53;;
20776;SDS011;10548;47.504;8.248;2022-09-01T11:45:19;3.20;;;2.70;;
20776;SDS011;10548;47.504;8.248;2022-09-01T11:47:57;3.53;;;3.20;;
20776;SDS011;10548;47.504;8.248;2022-09-01T11:53:22;5.97;;;2.73;;
20776;SDS011;10548;47.504;8.248;2022-09-01T11:55:50;3.40;;;2.33;;
20776;SDS011;10548;47.504;8.248;2022-09-01T11:58:30;2.73;;;2.00;;
20776;SDS011;10548;47.504;8.248;2022-09-01T12:04:21;5.67;;;1.90;;
20776;SDS011;10548;47.504;8.248;2022-09-01T12:06:52;2.47;;;2.00;;
20776;SDS011;10548;47.504;8.248;2022-09-01T12:09:43;2.70;;;1.80;;
20776;SDS011;10548;47.504;8.248;2022-09-01T12:12:30;2.07;;;1.73;;
20776;SDS011;10548;47.504;8.248;2022-09-01T12:15:03;3.23;;;2.00;;
20776;SDS011;10548;47.504;8.248;2022-09-01T12:17:50;2.17;;;1.77;;
20776;SDS011;10548;47.504;8.248;2022-09-01T12:20:27;2.00;;;1.40;;
20776;SDS011;10548;47.504;8.248;2022-09-01T12:23:01;2.63;;;1.97;;
20776;SDS011;10548;47.504;8.248;2022-09-01T12:25:31;2.40;;;1.80;;
20776;SDS011;10548;47.504;8.248;2022-09-01T12:28:00;6.00;;;1.83;;
20776;SDS011;10548;47.504;8.248;2022-09-01T12:30:29;2.13;;;1.63;;
20776;SDS011;10548;47.504;8.248;2022-09-01T12:33:02;4.83;;;1.57;;
20776;SDS011;10548;47.504;8.248;2022-09-01T12:35:51;1.80;;;1.70;;
20776;SDS011;10548;47.504;8.248;2022-09-01T12:38:36;2.00;;;1.60;;
20776;SDS011;10548;47.504;8.248;2022-09-01T12:41:15;2.70;;;1.40;;
20776;SDS011;10548;47.504;8.248;2022-09-01T12:43:49;2.60;;;1.70;;
20776;SDS011;10548;47.504;8.248;2022-09-01T12:46:39;5.57;;;2.20;;
20776;SDS011;10548;47.504;8.248;2022-09-01T12:49:15;1.60;;;1.50;;
20776;SDS011;10548;47.504;8.248;2022-09-01T12:51:48;2.07;;;1.57;;
20776;SDS011;10548;47.504;8.248;2022-09-01T12:54:15;1.83;;;1.67;;
20776;SDS011;10548;47.504;8.248;2022-09-01T12:56:50;2.40;;;1.67;;
20776;SDS011;10548;47.504;8.248;2022-09-01T12:59:23;1.90;;;1.60;;
20776;SDS011;10548;47.504;8.248;2022-09-01T13:04:54;4.87;;;1.80;;
20776;SDS011;10548;47.504;8.248;2022-09-01T13:07:21;7.70;;;2.17;;
20776;SDS011;10548;47.504;8.248;2022-09-01T13:09:48;4.10;;;1.80;;
20776;SDS011;10548;47.504;8.248;2022-09-01T13:12:16;2.33;;;1.70;;
20776;SDS011;10548;47.504;8.248;2022-09-01T13:14:45;2.50;;;1.50;;
20776;SDS011;10548;47.504;8.248;2022-09-01T13:17:12;2.47;;;1.60;;
20776;SDS011;10548;47.504;8.248;2022-09-01T13:19:40;2.83;;;1.80;;
20776;SDS011;10548;47.504;8.248;2022-09-01T13:22:07;2.33;;;1.37;;
20776;SDS011;10548;47.504;8.248;2022-09-01T13:24:35;2.00;;;1.80;;
20776;SDS011;10548;47.504;8.248;2022-09-01T13:27:02;1.93;;;1.40;;
20776;SDS011;10548;47.504;8.248;2022-09-01T13:29:47;2.43;;;1.80;;
20776;SDS011;10548;47.504;8.248;2022-09-01T13:32:14;2.83;;;1.80;;
20776;SDS011;10548;47.504;8.248;2022-09-01T13:34:44;1.80;;;1.50;;
20776;SDS011;10548;47.504;8.248;2022-09-01T13:37:12;4.27;;;1.50;;
20776;SDS011;10548;47.504;8.248;2022-09-01T13:39:39;2.80;;;1.70;;
20776;SDS011;10548;47.504;8.248;2022-09-01T13:42:06;4.07;;;1.70;;
20776;SDS011;10548;47.504;8.248;2022-09-01T13:44:33;4.20;;;1.73;;
20776;SDS011;10548;47.504;8.248;2022-09-01T13:47:01;2.27;;;1.80;;
20776;SDS011;10548;47.504;8.248;2022-09-01T13:49:49;1.70;;;1.60;;
20776;SDS011;10548;47.504;8.248;2022-09-01T13:52:36;4.07;;;1.60;;
20776;SDS011;10548;47.504;8.248;2022-09-01T13:55:04;1.63;;;1.53;;
20776;SDS011;10548;47.504;8.248;2022-09-01T13:57:32;2.60;;;1.30;;
20776;SDS011;10548;47.504;8.248;2022-09-01T14:00:03;3.33;;;1.43;;
20776;SDS011;10548;47.504;8.248;2022-09-01T14:02:39;1.73;;;1.63;;
20776;SDS011;10548;47.504;8.248;2022-09-01T14:05:26;2.17;;;1.70;;
20776;SDS011;10548;47.504;8.248;2022-09-01T14:07:55;2.00;;;1.70;;
20776;SDS011;10548;47.504;8.248;2022-09-01T14:10:23;3.57;;;1.33;;
20776;SDS011;10548;47.504;8.248;2022-09-01T14:12:52;1.60;;;1.50;;
20776;SDS011;10548;47.504;8.248;2022-09-01T14:15:19;2.53;;;1.90;;
20776;SDS011;10548;47.504;8.248;2022-09-01T14:17:53;2.43;;;1.80;;
20776;SDS011;10548;47.504;8.248;2022-09-01T14:20:23;3.20;;;1.57;;
20776;SDS011;10548;47.504;8.248;2022-09-01T14:22:53;7.33;;;2.00;;
20776;SDS011;10548;47.504;8.248;2022-09-01T14:25:21;1.87;;;1.70;;
20776;SDS011;10548;47.504;8.248;2022-09-01T14:27:49;1.80;;;1.57;;
20776;SDS011;10548;47.504;8.248;2022-09-01T14:30:19;2.90;;;1.50;;
20776;SDS011;10548;47.504;8.248;2022-09-01T14:32:56;3.95;;;1.38;;
20776;SDS011;10548;47.504;8.248;2022-09-01T14:35:25;1.58;;;1.48;;
20776;SDS011;10548;47.504;8.248;2022-09-01T14:37:52;4.80;;;1.60;;
20776;SDS011;10548;47.504;8.248;2022-09-01T14:40:20;5.73;;;1.90;;
20776;SDS011;10548;47.504;8.248;2022-09-01T14:42:50;1.80;;;1.60;;
20776;SDS011;10548;47.504;8.248;2022-09-01T14:45:20;4.70;;;1.73;;
20776;SDS011;10548;47.504;8.248;2022-09-01T14:47:50;3.40;;;2.23;;
20776;SDS011;10548;47.504;8.248;2022-09-01T14:50:20;2.57;;;1.90;;
20776;SDS011;10548;47.504;8.248;2022-09-01T14:52:49;2.13;;;1.60;;
20776;SDS011;10548;47.504;8.248;2022-09-01T14:55:19;2.87;;;1.50;;
20776;SDS011;10548;47.504;8.248;2022-09-01T14:57:48;2.72;;;1.50;;
20776;SDS011;10548;47.504;8.248;2022-09-01T15:00:15;2.55;;;1.60;;
20776;SDS011;10548;47.504;8.248;2022-09-01T15:02:43;1.55;;;1.40;;
20776;SDS011;10548;47.504;8.248;2022-09-01T15:05:11;2.17;;;1.58;;
20776;SDS011;10548;47.504;8.248;2022-09-01T15:07:39;1.50;;;1.40;;
20776;SDS011;10548;47.504;8.248;2022-09-01T15:10:08;1.67;;;1.30;;
20776;SDS011;10548;47.504;8.248;2022-09-01T15:12:49;3.40;;;1.30;;
20776;SDS011;10548;47.504;8.248;2022-09-01T15:15:17;1.60;;;1.50;;
20776;SDS011;10548;47.504;8.248;2022-09-01T15:17:45;5.47;;;1.50;;
20776;SDS011;10548;47.504;8.248;2022-09-01T15:20:12;2.00;;;1.37;;
20776;SDS011;10548;47.504;8.248;2022-09-01T15:22:58;2.10;;;1.30;;
20776;SDS011;10548;47.504;8.248;2022-09-01T15:25:26;2.30;;;1.50;;
20776;SDS011;10548;47.504;8.248;2022-09-01T15:27:54;2.83;;;1.73;;
20776;SDS011;10548;47.504;8.248;2022-09-01T15:30:21;3.43;;;1.57;;
20776;SDS011;10548;47.504;8.248;2022-09-01T15:32:50;2.15;;;1.42;;
20776;SDS011;10548;47.504;8.248;2022-09-01T15:35:18;1.45;;;1.27;;
20776;SDS011;10548;47.504;8.248;2022-09-01T15:37:48;2.42;;;1.20;;
20776;SDS011;10548;47.504;8.248;2022-09-01T15:40:16;1.77;;;1.40;;
20776;SDS011;10548;47.504;8.248;2022-09-01T15:42:44;2.13;;;1.30;;
20776;SDS011;10548;47.504;8.248;2022-09-01T15:45:12;4.90;;;1.35;;
20776;SDS011;10548;47.504;8.248;2022-09-01T15:47:42;2.10;;;1.48;;
20776;SDS011;10548;47.504;8.248;2022-09-01T15:50:11;2.80;;;1.20;;
20776;SDS011;10548;47.504;8.248;2022-09-01T15:55:44;1.80;;;1.60;;
20776;SDS011;10548;47.504;8.248;2022-09-01T15:58:14;1.70;;;1.60;;
20776;SDS011;10548;47.504;8.248;2022-09-01T16:00:43;2.47;;;1.70;;
20776;SDS011;10548;47.504;8.248;2022-09-01T16:03:11;2.20;;;1.63;;
20776;SDS011;10548;47.504;8.248;2022-09-01T16:05:38;2.00;;;1.50;;
20776;SDS011;10548;47.504;8.248;2022-09-01T16:08:06;3.60;;;1.30;;
20776;SDS011;10548;47.504;8.248;2022-09-01T16:10:36;1.58;;;1.38;;